createdAt,value
2022-08-22T00:01:10.887Z,21.81
2022-08-22T00:02:24.435Z,21.8
2022-08-22T00:02:55.205Z,21.92
2022-08-22T00:02:58.171Z,22.49
2022-08-22T00:03:15.114Z,21.97
2022-08-22T00:03:29.151Z,21.8
2022-08-22T00:04:42.165Z,21.75
2022-08-22T00:05:54.349Z,21.78
2022-08-22T00:06:57.194Z,21.77
2022-08-22T00:08:09.454Z,21.77
2022-08-22T00:09:22.691Z,21.77
2022-08-22T00:10:25.863Z,21.8
2022-08-22T00:11:39.207Z,21.75
2022-08-22T00:12:51.636Z,21.77
2022-08-22T00:14:04.688Z,21.77
2022-08-22T00:15:07.125Z,21.75
2022-08-22T00:16:20.185Z,21.74
2022-08-22T00:17:32.568Z,21.74
2022-08-22T00:18:35.663Z,21.72
2022-08-22T00:19:47.987Z,21.74
2022-08-22T00:21:01.180Z,21.72
2022-08-22T00:22:13.553Z,21.71
2022-08-22T00:23:16.709Z,21.7
2022-08-22T00:24:29.043Z,21.7
2022-08-22T00:25:42.166Z,21.72
2022-08-22T00:26:45.589Z,21.68
2022-08-22T00:27:59.419Z,21.7
2022-08-22T00:29:11.892Z,21.68
2022-08-22T00:30:15.163Z,21.68
2022-08-22T00:31:27.594Z,21.67
2022-08-22T00:32:40.691Z,21.7
2022-08-22T00:33:53.043Z,21.67
2022-08-22T00:34:56.704Z,21.64
2022-08-22T00:36:09.097Z,21.65
2022-08-22T00:37:22.206Z,21.65
2022-08-22T00:38:26.956Z,21.64
2022-08-22T00:39:40.273Z,21.64
2022-08-22T00:40:42.739Z,21.64
2022-08-22T00:41:56.212Z,21.61
2022-08-22T00:43:08.560Z,21.64
2022-08-22T00:44:21.708Z,21.6
2022-08-22T00:45:24.177Z,21.61
2022-08-22T00:46:37.197Z,21.61
2022-08-22T00:47:49.560Z,21.62
2022-08-22T00:49:02.690Z,21.6
2022-08-22T00:50:05.217Z,21.62
2022-08-22T00:51:18.180Z,21.61
2022-08-22T00:52:30.551Z,21.6
2022-08-22T00:53:33.687Z,21.6
2022-08-22T00:54:47.060Z,21.6
2022-08-22T00:56:00.188Z,21.57
2022-08-22T00:57:02.705Z,21.58
2022-08-22T00:58:16.185Z,21.57
2022-08-22T00:59:28.617Z,21.54
2022-08-22T01:00:42.226Z,21.6
2022-08-22T01:01:44.678Z,21.57
2022-08-22T01:02:58.241Z,21.54
2022-08-22T01:04:10.698Z,21.57
2022-08-22T01:05:13.704Z,21.54
2022-08-22T01:06:26.060Z,21.55
2022-08-22T01:07:39.232Z,21.53
2022-08-22T01:08:41.681Z,21.55
2022-08-22T01:09:54.693Z,21.54
2022-08-22T01:11:07.159Z,21.51
2022-08-22T01:12:20.233Z,21.54
2022-08-22T01:13:22.704Z,21.51
2022-08-22T01:14:35.732Z,21.53
2022-08-22T01:15:48.151Z,21.53
2022-08-22T01:16:51.185Z,21.5
2022-08-22T01:18:03.724Z,21.48
2022-08-22T01:19:16.730Z,21.48
2022-08-22T01:20:29.107Z,21.48
2022-08-22T01:21:32.318Z,21.48
2022-08-22T01:22:44.747Z,21.46
2022-08-22T01:23:58.210Z,21.48
2022-08-22T01:25:00.668Z,21.47
2022-08-22T01:26:15.687Z,21.46
2022-08-22T01:27:21.695Z,21.47
2022-08-22T01:28:35.724Z,21.46
2022-08-22T01:29:48.142Z,21.47
2022-08-22T01:30:51.200Z,21.47
2022-08-22T01:32:03.572Z,21.44
2022-08-22T01:33:16.764Z,21.44
2022-08-22T01:34:29.145Z,21.44
2022-08-22T01:35:32.305Z,21.46
2022-08-22T01:36:44.707Z,21.44
2022-08-22T01:37:57.807Z,21.43
2022-08-22T01:39:10.283Z,21.41
2022-08-22T01:40:13.746Z,21.43
2022-08-22T01:41:26.579Z,21.43
2022-08-22T01:42:39.714Z,21.43
2022-08-22T01:43:59.239Z,21.43
2022-08-22T01:44:54.224Z,21.41
2022-08-22T01:46:06.580Z,21.4
2022-08-22T01:47:19.714Z,21.41
2022-08-22T01:48:22.193Z,21.43
2022-08-22T01:49:35.700Z,21.41
2022-08-22T01:50:48.069Z,21.39
2022-08-22T01:51:51.236Z,21.41
2022-08-22T01:53:03.593Z,21.41
2022-08-22T01:54:16.724Z,21.37
2022-08-22T01:55:29.107Z,21.4
2022-08-22T01:56:32.337Z,21.4
2022-08-22T01:57:44.746Z,21.37
2022-08-22T01:58:57.736Z,21.37
2022-08-22T02:00:02.448Z,21.39
2022-08-22T02:01:15.747Z,21.36
2022-08-22T02:02:28.236Z,21.37
2022-08-22T02:03:31.706Z,21.39
2022-08-22T02:04:44.144Z,21.37
2022-08-22T02:05:57.239Z,21.36
2022-08-22T02:07:09.651Z,21.33
2022-08-22T02:08:12.746Z,21.33
2022-08-22T02:09:25.168Z,21.33
2022-08-22T02:10:38.220Z,21.34
2022-08-22T02:11:40.722Z,21.33
2022-08-22T02:12:53.737Z,21.31
2022-08-22T02:14:07.761Z,21.33
2022-08-22T02:15:20.708Z,21.34
2022-08-22T02:16:23.166Z,21.31
2022-08-22T02:17:36.228Z,21.33
2022-08-22T02:18:48.665Z,21.33
2022-08-22T02:19:52.017Z,21.34
2022-08-22T02:21:05.060Z,21.31
2022-08-22T02:22:18.581Z,21.31
2022-08-22T02:23:40.910Z,21.31
2022-08-22T02:24:34.571Z,21.3
2022-08-22T02:25:46.932Z,21.31
2022-08-22T02:27:00.225Z,21.31
2022-08-22T02:28:02.748Z,21.31
2022-08-22T02:29:15.744Z,21.33
2022-08-22T02:30:28.130Z,21.33
2022-08-22T02:31:41.216Z,21.33
2022-08-22T02:32:43.738Z,21.34
2022-08-22T02:33:56.744Z,21.31
2022-08-22T02:35:09.180Z,21.34
2022-08-22T02:36:12.744Z,21.31
2022-08-22T02:37:25.149Z,21.3
2022-08-22T02:38:38.357Z,21.3
2022-08-22T02:39:50.815Z,21.31
2022-08-22T02:40:54.242Z,21.31
2022-08-22T02:42:06.642Z,21.31
2022-08-22T02:43:19.733Z,21.31
2022-08-22T02:44:22.220Z,21.3
2022-08-22T02:45:35.253Z,21.3
2022-08-22T02:46:47.626Z,21.31
2022-08-22T02:48:00.726Z,21.3
2022-08-22T02:49:03.296Z,21.29
2022-08-22T02:50:16.236Z,21.31
2022-08-22T02:51:29.997Z,21.3
2022-08-22T02:52:33.324Z,21.26
2022-08-22T02:53:45.769Z,21.27
2022-08-22T02:55:18.722Z,21.3
2022-08-22T02:56:11.319Z,21.27
2022-08-22T02:57:14.188Z,21.3
2022-08-22T02:58:27.719Z,21.3
2022-08-22T02:59:59.888Z,21.3
2022-08-22T03:00:43.548Z,21.31
2022-08-22T03:01:56.212Z,21.31
2022-08-22T03:04:36.367Z,21.3
2022-08-22T03:05:29.003Z,21.3
2022-08-22T03:06:42.232Z,21.31
2022-08-22T03:07:44.785Z,21.31
2022-08-22T03:08:58.516Z,21.31
2022-08-22T03:10:10.881Z,21.3
2022-08-22T03:11:14.195Z,21.3
2022-08-22T03:12:26.585Z,21.3
2022-08-22T03:13:49.685Z,21.31
2022-08-22T03:14:52.137Z,21.31
2022-08-22T03:15:55.215Z,21.27
2022-08-22T03:17:07.684Z,21.29
2022-08-22T03:18:20.664Z,21.29
2022-08-22T03:19:33.063Z,21.27
2022-08-22T03:20:36.277Z,21.27
2022-08-22T03:21:48.672Z,21.27
2022-08-22T03:23:01.677Z,21.27
2022-08-22T03:24:04.153Z,21.24
2022-08-22T03:25:17.191Z,21.23
2022-08-22T03:26:29.628Z,21.23
2022-08-22T03:27:42.686Z,21.21
2022-08-22T03:28:58.933Z,21.24
2022-08-22T03:30:03.686Z,21.21
2022-08-22T03:31:06.173Z,21.21
2022-08-22T03:32:19.185Z,21.21
2022-08-22T03:33:31.649Z,21.23
2022-08-22T03:34:44.712Z,21.19
2022-08-22T03:35:47.200Z,21.21
2022-08-22T03:37:00.192Z,21.19
2022-08-22T03:38:12.599Z,21.2
2022-08-22T03:39:17.330Z,21.21
2022-08-22T03:40:31.622Z,21.17
2022-08-22T03:41:45.183Z,21.17
2022-08-22T03:42:47.657Z,21.19
2022-08-22T03:44:02.202Z,21.16
2022-08-22T03:45:14.626Z,21.16
2022-08-22T03:46:18.562Z,21.16
2022-08-22T03:47:31.134Z,21.14
2022-08-22T03:48:44.193Z,21.16
2022-08-22T03:49:46.674Z,21.16
2022-08-22T03:50:59.689Z,21.11
2022-08-22T03:52:12.112Z,21.13
2022-08-22T03:53:25.229Z,21.14
2022-08-22T03:54:30.510Z,21.13
2022-08-22T03:55:43.750Z,21.14
2022-08-22T03:56:46.256Z,21.13
2022-08-22T03:57:59.853Z,21.09
2022-08-22T03:59:12.531Z,21.11
2022-08-22T04:00:25.733Z,21.1
2022-08-22T04:01:28.331Z,21.11
2022-08-22T04:02:44.133Z,21.09
2022-08-22T04:03:46.911Z,21.13
2022-08-22T04:05:00.211Z,21.14
2022-08-22T04:06:13.085Z,21.13
2022-08-22T04:07:31.431Z,21.16
2022-08-22T04:08:34.848Z,21.17
2022-08-22T04:09:38.199Z,21.19
2022-08-22T04:10:50.893Z,21.2
2022-08-22T04:12:04.222Z,21.19
2022-08-22T04:13:06.821Z,21.19
2022-08-22T04:14:20.230Z,21.2
2022-08-22T04:15:32.635Z,21.19
2022-08-22T04:16:45.722Z,21.21
2022-08-22T04:17:48.250Z,21.21
2022-08-22T04:19:11.222Z,21.21
2022-08-22T04:20:13.675Z,21.2
2022-08-22T04:21:20.233Z,21.2
2022-08-22T04:22:32.627Z,21.21
2022-08-22T04:23:45.728Z,21.21
2022-08-22T04:24:52.020Z,21.26
2022-08-22T04:26:12.159Z,21.23
2022-08-22T04:27:15.311Z,21.23
2022-08-22T04:28:18.697Z,21.23
2022-08-22T04:29:31.090Z,21.23
2022-08-22T04:30:44.193Z,21.23
2022-08-22T04:31:56.582Z,21.26
2022-08-22T04:32:59.727Z,21.31
2022-08-22T04:34:21.801Z,21.41
2022-08-22T04:35:25.229Z,21.51
2022-08-22T04:36:27.637Z,21.65
2022-08-22T04:37:40.718Z,21.74
2022-08-22T04:38:53.033Z,21.84
2022-08-22T04:40:06.266Z,21.98
2022-08-22T04:41:08.856Z,22.09
2022-08-22T04:42:32.878Z,22.19
2022-08-22T04:43:35.777Z,22.25
2022-08-22T04:44:38.765Z,22.36
2022-08-22T04:45:50.913Z,22.43
2022-08-22T04:47:03.722Z,22.49
2022-08-22T04:48:15.931Z,22.53
2022-08-22T04:49:19.209Z,22.57
2022-08-22T04:50:31.452Z,22.6
2022-08-22T04:51:44.232Z,22.62
2022-08-22T04:52:56.430Z,22.67
2022-08-22T04:53:59.724Z,22.69
2022-08-22T04:55:11.923Z,22.7
2022-08-22T04:56:24.710Z,22.77
2022-08-22T04:57:36.835Z,22.77
2022-08-22T04:58:39.705Z,22.83
2022-08-22T04:59:51.828Z,22.84
2022-08-22T05:01:05.215Z,22.9
2022-08-22T05:02:07.581Z,22.91
2022-08-22T05:03:20.748Z,22.96
2022-08-22T05:04:32.902Z,22.97
2022-08-22T05:05:45.706Z,22.97
2022-08-22T05:06:47.975Z,22.97
2022-08-22T05:08:00.901Z,23.01
2022-08-22T05:09:16.158Z,23.04
2022-08-22T05:10:19.239Z,23.05
2022-08-22T05:11:31.386Z,23.07
2022-08-22T05:12:44.258Z,23.08
2022-08-22T05:13:46.547Z,23.1
2022-08-22T05:14:59.249Z,23.14
2022-08-22T05:16:13.502Z,23.13
2022-08-22T05:17:26.319Z,23.17
2022-08-22T05:18:29.840Z,23.18
2022-08-22T05:19:43.238Z,23.2
2022-08-22T05:20:55.383Z,23.24
2022-08-22T05:21:58.253Z,23.24
2022-08-22T05:23:16.963Z,23.27
2022-08-22T05:24:20.743Z,23.25
2022-08-22T05:25:32.876Z,23.28
2022-08-22T05:26:37.742Z,23.3
2022-08-22T05:27:49.864Z,23.32
2022-08-22T05:28:56.235Z,23.34
2022-08-22T05:30:08.311Z,23.34
2022-08-22T05:31:23.966Z,23.35
2022-08-22T05:32:26.384Z,23.37
2022-08-22T05:33:39.252Z,23.38
2022-08-22T05:34:51.686Z,23.39
2022-08-22T05:36:04.753Z,23.39
2022-08-22T05:37:08.188Z,23.41
2022-08-22T05:38:21.225Z,23.41
2022-08-22T05:39:33.322Z,23.39
2022-08-22T05:40:36.228Z,23.41
2022-08-22T05:41:50.087Z,23.42
2022-08-22T05:43:03.248Z,23.44
2022-08-22T05:44:05.435Z,23.42
2022-08-22T05:45:18.265Z,23.42
2022-08-22T05:46:30.386Z,23.42
2022-08-22T05:47:43.251Z,23.44
2022-08-22T05:48:45.532Z,23.42
2022-08-22T05:49:58.250Z,23.44
2022-08-22T05:51:10.357Z,23.45
2022-08-22T05:52:23.249Z,23.41
2022-08-22T05:53:27.206Z,23.42
2022-08-22T05:54:40.224Z,23.42
2022-08-22T05:55:42.506Z,23.45
2022-08-22T05:56:55.242Z,23.44
2022-08-22T05:58:07.303Z,23.45
2022-08-22T05:59:20.263Z,23.47
2022-08-22T06:00:22.449Z,23.45
2022-08-22T06:01:35.299Z,23.45
2022-08-22T06:02:47.372Z,23.44
2022-08-22T06:04:00.235Z,23.47
2022-08-22T06:05:02.491Z,23.47
2022-08-22T06:06:15.441Z,23.49
2022-08-22T06:07:29.077Z,23.45
2022-08-22T06:08:52.023Z,23.48
2022-08-22T06:09:44.444Z,23.49
2022-08-22T06:10:57.226Z,23.49
2022-08-22T06:12:11.678Z,23.51
2022-08-22T06:13:24.679Z,23.51
2022-08-22T06:14:37.634Z,23.49
2022-08-22T06:15:33.258Z,23.52
2022-08-22T06:16:47.689Z,23.51
2022-08-22T06:17:51.746Z,23.51
2022-08-22T06:19:03.856Z,23.54
2022-08-22T06:20:12.249Z,23.54
2022-08-22T06:21:24.337Z,23.55
2022-08-22T06:22:37.239Z,23.55
2022-08-22T06:23:49.337Z,23.56
2022-08-22T06:24:52.223Z,23.56
2022-08-22T06:26:04.268Z,23.56
2022-08-22T06:27:17.283Z,23.52
2022-08-22T06:28:19.581Z,23.54
2022-08-22T06:29:32.232Z,23.56
2022-08-22T06:30:44.273Z,23.54
2022-08-22T06:31:57.275Z,23.56
2022-08-22T06:33:01.037Z,23.54
2022-08-22T06:34:14.258Z,23.51
2022-08-22T06:35:26.358Z,23.51
2022-08-22T06:36:29.226Z,23.49
2022-08-22T06:37:41.325Z,23.51
2022-08-22T06:38:54.275Z,23.49
2022-08-22T06:40:06.489Z,23.47
2022-08-22T06:41:09.743Z,23.47
2022-08-22T06:42:21.847Z,23.47
2022-08-22T06:43:35.046Z,23.48
2022-08-22T06:44:47.090Z,23.47
2022-08-22T06:45:50.317Z,23.48
2022-08-22T06:47:02.423Z,23.47
2022-08-22T06:48:15.284Z,23.47
2022-08-22T06:49:17.468Z,23.47
2022-08-22T06:50:30.271Z,23.45
2022-08-22T06:51:42.466Z,23.45
2022-08-22T06:52:55.307Z,23.45
2022-08-22T06:53:57.995Z,23.47
2022-08-22T06:55:10.780Z,23.47
2022-08-22T06:56:22.887Z,23.45
2022-08-22T06:57:36.263Z,23.48
2022-08-22T06:58:38.460Z,23.47
2022-08-22T06:59:51.264Z,23.48
2022-08-22T07:01:11.219Z,23.48
2022-08-22T07:02:15.285Z,23.49
2022-08-22T07:03:18.622Z,23.51
2022-08-22T07:04:31.287Z,23.51
2022-08-22T07:05:43.490Z,23.52
2022-08-22T07:06:46.796Z,23.54
2022-08-22T07:07:59.056Z,23.54
2022-08-22T07:09:12.278Z,23.55
2022-08-22T07:10:24.392Z,23.55
2022-08-22T07:11:37.278Z,23.55
2022-08-22T07:12:39.529Z,23.55
2022-08-22T07:13:52.263Z,23.56
2022-08-22T07:14:54.434Z,23.58
2022-08-22T07:16:07.277Z,23.56
2022-08-22T07:17:19.364Z,23.56
2022-08-22T07:18:32.257Z,23.58
2022-08-22T07:19:34.481Z,23.56
2022-08-22T07:20:47.280Z,23.58
2022-08-22T07:21:59.871Z,23.59
2022-08-22T07:23:12.810Z,23.56
2022-08-22T07:24:15.096Z,23.56
2022-08-22T07:25:27.766Z,23.56
2022-08-22T07:26:39.929Z,23.59
2022-08-22T07:27:52.814Z,23.55
2022-08-22T07:28:58.532Z,23.56
2022-08-22T07:30:13.050Z,23.59
2022-08-22T07:31:15.596Z,23.59
2022-08-22T07:32:30.763Z,23.59
2022-08-22T07:33:33.029Z,23.59
2022-08-22T07:34:45.794Z,23.59
2022-08-22T07:35:57.838Z,23.58
2022-08-22T07:37:10.827Z,23.61
2022-08-22T07:38:14.129Z,23.59
2022-08-22T07:39:26.764Z,23.62
2022-08-22T07:40:39.625Z,23.64
2022-08-22T07:41:42.786Z,23.62
2022-08-22T07:42:54.933Z,23.65
2022-08-22T07:44:07.789Z,23.64
2022-08-22T07:45:10.061Z,23.68
2022-08-22T07:46:22.857Z,23.64
2022-08-22T07:47:49.218Z,23.65
2022-08-22T07:49:05.945Z,23.68
2022-08-22T07:49:51.074Z,23.66
2022-08-22T07:51:03.185Z,23.74
2022-08-22T07:52:16.285Z,23.74
2022-08-22T07:53:28.363Z,23.76
2022-08-22T07:54:31.781Z,23.75
2022-08-22T07:58:00.239Z,23.74
2022-08-22T07:58:03.988Z,23.75
2022-08-22T07:59:16.418Z,23.75
2022-08-22T08:00:19.361Z,23.81
2022-08-22T08:01:31.443Z,23.81
2022-08-22T08:02:44.353Z,23.81
2022-08-22T08:03:56.434Z,23.81
2022-08-22T08:04:59.363Z,23.82
2022-08-22T08:06:31.077Z,23.85
2022-08-22T08:07:24.408Z,23.81
2022-08-22T08:08:46.145Z,23.79
2022-08-22T08:09:39.365Z,23.81
2022-08-22T08:10:51.686Z,23.79
2022-08-22T08:12:04.406Z,23.82
2022-08-22T08:13:06.649Z,23.85
2022-08-22T08:14:19.405Z,23.82
2022-08-22T08:15:31.499Z,23.85
2022-08-22T08:17:03.879Z,23.85
2022-08-22T08:17:46.323Z,23.83
2022-08-22T08:19:28.908Z,23.83
2022-08-22T08:20:11.410Z,23.85
2022-08-22T08:21:13.533Z,23.89
2022-08-22T08:22:26.367Z,23.9
2022-08-22T08:23:39.678Z,23.9
2022-08-22T08:24:52.899Z,23.9
2022-08-22T08:25:55.298Z,23.92
2022-08-22T08:27:08.379Z,23.93
2022-08-22T08:28:20.466Z,23.93
2022-08-22T08:29:24.876Z,23.96
2022-08-22T08:30:36.941Z,23.96
2022-08-22T08:31:49.909Z,23.95
2022-08-22T08:32:52.135Z,23.99
2022-08-22T08:34:10.384Z,23.99
2022-08-22T08:35:12.607Z,23.99
2022-08-22T08:36:25.391Z,24.0
2022-08-22T08:37:37.469Z,23.98
2022-08-22T08:39:09.913Z,23.98
2022-08-22T08:39:52.376Z,23.99
2022-08-22T08:41:04.506Z,23.98
2022-08-22T08:42:17.359Z,24.02
2022-08-22T08:43:29.417Z,24.05
2022-08-22T08:44:32.360Z,24.03
2022-08-22T08:45:44.459Z,24.11
2022-08-22T08:46:57.453Z,24.1
2022-08-22T08:47:59.702Z,24.07
2022-08-22T08:49:12.870Z,24.09
2022-08-22T08:50:24.708Z,24.1
2022-08-22T08:51:37.421Z,24.09
2022-08-22T08:52:39.568Z,24.11
2022-08-22T08:53:52.413Z,24.1
2022-08-22T08:55:19.714Z,24.16
2022-08-22T08:56:17.805Z,24.16
2022-08-22T08:57:22.986Z,24.19
2022-08-22T08:58:35.884Z,24.22
2022-08-22T08:59:44.788Z,24.25
2022-08-22T09:00:48.995Z,24.22
2022-08-22T09:02:01.257Z,24.23
2022-08-22T09:03:15.446Z,24.29
2022-08-22T09:04:18.830Z,24.3
2022-08-22T09:05:31.928Z,24.32
2022-08-22T09:06:43.997Z,24.33
2022-08-22T09:07:46.422Z,24.34
2022-08-22T09:09:00.087Z,24.37
2022-08-22T09:10:12.894Z,24.4
2022-08-22T09:11:15.359Z,24.43
2022-08-22T09:12:28.895Z,24.46
2022-08-22T09:13:41.053Z,24.49
2022-08-22T09:14:53.940Z,24.54
2022-08-22T09:16:04.397Z,24.54
2022-08-22T09:17:07.882Z,24.57
2022-08-22T09:18:19.872Z,24.58
2022-08-22T09:19:23.430Z,24.61
2022-08-22T09:20:35.603Z,24.65
2022-08-22T09:21:49.411Z,24.67
2022-08-22T09:23:01.387Z,24.7
2022-08-22T09:24:04.901Z,24.77
2022-08-22T09:25:17.087Z,24.81
2022-08-22T09:26:29.887Z,24.88
2022-08-22T09:27:32.011Z,24.92
2022-08-22T09:28:44.927Z,24.94
2022-08-22T09:29:59.783Z,25.01
2022-08-22T09:31:02.886Z,25.04
2022-08-22T09:32:19.233Z,25.04
2022-08-22T09:33:31.900Z,25.08
2022-08-22T09:34:34.095Z,25.09
2022-08-22T09:35:46.897Z,25.12
2022-08-22T09:36:51.503Z,25.15
2022-08-22T09:38:14.405Z,25.19
2022-08-22T09:39:16.747Z,25.18
2022-08-22T09:40:24.765Z,25.22
2022-08-22T09:41:37.008Z,25.25
2022-08-22T09:42:39.909Z,25.29
2022-08-22T09:43:57.020Z,25.29
2022-08-22T09:45:01.912Z,25.33
2022-08-22T09:46:14.972Z,25.38
2022-08-22T09:47:17.947Z,25.38
2022-08-22T09:48:26.954Z,25.39
2022-08-22T09:49:39.901Z,25.42
2022-08-22T09:50:52.700Z,25.43
2022-08-22T09:52:05.140Z,25.45
2022-08-22T09:53:06.997Z,25.42
2022-08-22T09:54:20.007Z,25.45
2022-08-22T09:55:35.185Z,25.46
2022-08-22T09:56:38.928Z,25.49
2022-08-22T09:57:52.607Z,25.49
2022-08-22T09:58:56.417Z,25.52
2022-08-22T10:00:09.399Z,25.52
2022-08-22T10:01:22.464Z,25.52
2022-08-22T10:02:24.603Z,25.55
2022-08-22T10:03:37.913Z,25.56
2022-08-22T10:04:50.144Z,25.56
2022-08-22T10:06:02.928Z,25.58
2022-08-22T10:07:27.311Z,25.59
2022-08-22T10:08:20.415Z,25.62
2022-08-22T10:09:31.207Z,25.66
2022-08-22T10:10:34.434Z,25.67
2022-08-22T10:11:46.366Z,25.67
2022-08-22T10:13:00.018Z,25.67
2022-08-22T10:14:02.704Z,25.67
2022-08-22T10:15:15.446Z,25.67
2022-08-22T10:16:29.030Z,25.69
2022-08-22T10:17:31.920Z,25.67
2022-08-22T10:18:53.256Z,25.66
2022-08-22T10:19:58.454Z,25.69
2022-08-22T10:21:00.530Z,25.67
2022-08-22T10:22:13.439Z,25.7
2022-08-22T10:23:25.683Z,25.74
2022-08-22T10:24:44.031Z,25.74
2022-08-22T10:25:46.385Z,25.74
2022-08-22T10:26:49.576Z,25.74
2022-08-22T10:28:01.600Z,25.77
2022-08-22T10:29:14.407Z,25.76
2022-08-22T10:31:06.605Z,25.79
2022-08-22T10:31:31.929Z,25.74
2022-08-22T10:32:43.990Z,25.76
2022-08-22T10:34:07.926Z,25.77
2022-08-22T10:35:00.347Z,25.8
2022-08-22T10:36:13.922Z,25.79
2022-08-22T10:37:15.977Z,25.8
2022-08-22T10:38:28.968Z,25.82
2022-08-22T10:39:40.920Z,25.84
2022-08-22T10:40:46.921Z,25.83
2022-08-22T10:41:59.707Z,25.86
2022-08-22T10:43:12.424Z,25.83
2022-08-22T10:44:14.658Z,25.87
2022-08-22T10:45:46.928Z,25.87
2022-08-22T10:47:57.844Z,25.86
2022-08-22T10:49:46.604Z,25.89
2022-08-22T10:50:33.587Z,25.93
2022-08-22T10:51:16.936Z,25.98
2022-08-22T10:52:29.583Z,26.04
2022-08-22T10:54:20.717Z,26.13
2022-08-22T10:54:44.070Z,26.2
2022-08-22T10:55:56.917Z,26.23
2022-08-22T10:57:09.642Z,26.3
2022-08-22T10:58:11.646Z,26.31
2022-08-22T10:59:53.622Z,26.3
2022-08-22T11:00:36.179Z,26.31
2022-08-22T11:02:28.099Z,26.34
2022-08-22T11:02:53.328Z,26.4
2022-08-22T11:04:05.695Z,26.42
2022-08-22T11:05:28.124Z,26.44
2022-08-22T11:06:20.373Z,26.48
2022-08-22T11:07:33.098Z,26.51
2022-08-22T11:08:46.533Z,26.54
2022-08-22T11:09:49.153Z,26.55
2022-08-22T11:11:02.683Z,26.58
2022-08-22T11:12:16.636Z,26.62
2022-08-22T11:13:19.193Z,26.68
2022-08-22T11:14:31.621Z,26.65
2022-08-22T11:16:12.814Z,26.68
2022-08-22T11:16:46.124Z,26.75
2022-08-22T11:17:57.943Z,26.75
2022-08-22T11:19:14.944Z,26.79
2022-08-22T11:20:19.531Z,26.85
2022-08-22T11:21:32.768Z,26.86
2022-08-22T11:22:34.894Z,26.89
2022-08-22T11:23:47.601Z,26.93
2022-08-22T11:25:03.697Z,26.99
2022-08-22T11:26:07.131Z,27.0
2022-08-22T11:27:20.844Z,27.0
2022-08-22T11:29:13.156Z,27.06
2022-08-22T11:29:37.054Z,27.11
2022-08-22T11:30:50.366Z,27.16
2022-08-22T11:31:53.361Z,27.22
2022-08-22T11:33:05.422Z,27.25
2022-08-22T11:34:20.556Z,27.27
2022-08-22T11:35:22.690Z,27.3
2022-08-22T11:36:35.353Z,27.33
2022-08-22T11:37:47.263Z,27.39
2022-08-22T11:39:13.811Z,27.39
2022-08-22T11:40:00.907Z,27.42
2022-08-22T11:41:12.720Z,27.47
2022-08-22T11:42:25.388Z,27.49
2022-08-22T11:43:32.531Z,27.5
2022-08-22T11:44:50.228Z,27.54
2022-08-22T11:45:53.103Z,27.53
2022-08-22T11:47:05.859Z,27.59
2022-08-22T11:48:09.741Z,27.59
2022-08-22T11:49:25.787Z,27.59
2022-08-22T11:51:55.664Z,27.62
2022-08-22T11:52:51.960Z,27.64
2022-08-22T11:54:04.755Z,27.69
2022-08-22T11:55:36.038Z,27.7
2022-08-22T11:56:19.231Z,27.76
2022-08-22T11:57:31.212Z,27.83
2022-08-22T11:58:43.724Z,27.83
2022-08-22T11:59:45.629Z,27.84
2022-08-22T12:01:00.798Z,27.9
2022-08-22T12:02:04.181Z,27.94
2022-08-22T12:03:16.708Z,27.97
2022-08-22T12:04:29.008Z,28.05
2022-08-22T12:05:33.214Z,28.1
2022-08-22T12:06:44.969Z,28.11
2022-08-22T12:07:59.213Z,28.15
2022-08-22T12:09:01.114Z,28.2
2022-08-22T12:10:15.253Z,28.24
2022-08-22T12:11:26.968Z,28.22
2022-08-22T12:12:39.216Z,28.27
2022-08-22T12:13:45.777Z,28.31
2022-08-22T12:14:58.198Z,28.32
2022-08-22T12:16:00.123Z,28.35
2022-08-22T12:17:21.237Z,28.35
2022-08-22T12:18:23.967Z,28.37
2022-08-22T12:19:42.108Z,28.38
2022-08-22T12:20:45.837Z,28.42
2022-08-22T12:21:49.621Z,28.48
2022-08-22T12:23:02.543Z,28.54
2022-08-22T12:24:19.383Z,28.52
2022-08-22T12:25:23.728Z,28.58
2022-08-22T12:26:25.617Z,28.59
2022-08-22T12:27:38.728Z,28.51
2022-08-22T12:28:46.809Z,28.56
2022-08-22T12:29:59.248Z,28.56
2022-08-22T12:31:11.148Z,28.56
2022-08-22T12:32:27.555Z,28.56
2022-08-22T12:33:29.888Z,28.56
2022-08-22T12:34:35.790Z,28.54
2022-08-22T12:35:47.679Z,28.56
2022-08-22T12:37:00.261Z,28.59
2022-08-22T12:38:02.154Z,28.62
2022-08-22T12:39:14.737Z,28.61
2022-08-22T12:40:27.269Z,28.62
2022-08-22T12:41:39.758Z,28.68
2022-08-22T12:42:48.498Z,28.71
2022-08-22T12:43:51.251Z,28.73
2022-08-22T12:45:03.599Z,28.76
2022-08-22T12:46:16.252Z,28.79
2022-08-22T12:47:28.822Z,28.85
2022-08-22T12:48:34.758Z,28.86
2022-08-22T12:49:52.361Z,28.88
2022-08-22T12:50:55.280Z,28.93
2022-08-22T12:52:06.929Z,28.95
2022-08-22T12:53:09.777Z,28.99
2022-08-22T12:54:22.186Z,28.99
2022-08-22T12:55:35.749Z,29.0
2022-08-22T12:58:03.715Z,29.03
2022-08-22T12:58:56.008Z,29.09
2022-08-22T13:00:08.554Z,29.1
2022-08-22T13:01:33.691Z,29.15
2022-08-22T13:02:27.534Z,29.17
2022-08-22T13:03:39.179Z,29.23
2022-08-22T13:04:51.568Z,29.27
2022-08-22T13:05:59.183Z,28.88
2022-08-22T13:07:13.070Z,28.91
2022-08-22T13:08:17.349Z,29.0
2022-08-22T13:09:30.673Z,28.88
2022-08-22T13:10:32.601Z,28.86
2022-08-22T13:11:45.041Z,28.89
2022-08-22T13:12:57.129Z,28.98
2022-08-22T13:14:09.546Z,29.03
2022-08-22T13:15:10.974Z,29.07
2022-08-22T13:16:23.570Z,29.13
2022-08-22T13:17:35.932Z,29.17
2022-08-22T13:18:53.584Z,29.22
2022-08-22T13:19:55.968Z,29.26
2022-08-22T13:20:59.057Z,29.29
2022-08-22T13:22:10.992Z,29.32
2022-08-22T13:23:23.565Z,29.35
2022-08-22T13:24:38.876Z,29.39
2022-08-22T13:25:42.045Z,29.46
2022-08-22T13:26:53.669Z,29.42
2022-08-22T13:28:06.226Z,29.43
2022-08-22T13:29:25.238Z,29.44
2022-08-22T13:30:19.035Z,29.44
2022-08-22T13:31:30.639Z,29.5
2022-08-22T13:32:44.264Z,29.5
2022-08-22T13:33:46.636Z,29.46
2022-08-22T13:34:59.082Z,29.47
2022-08-22T13:36:11.020Z,29.42
2022-08-22T13:37:13.578Z,29.36
2022-08-22T13:38:26.637Z,29.35
2022-08-22T13:39:39.133Z,29.33
2022-08-22T13:40:41.136Z,29.37
2022-08-22T13:41:54.071Z,29.3
2022-08-22T13:44:32.103Z,29.19
2022-08-22T13:45:24.138Z,29.24
2022-08-22T13:46:44.526Z,29.26
2022-08-22T13:47:40.499Z,29.23
2022-08-22T13:48:52.137Z,29.23
2022-08-22T13:50:06.055Z,29.23
2022-08-22T13:51:08.066Z,29.2
2022-08-22T13:52:29.712Z,28.99
2022-08-22T13:53:32.220Z,28.99
2022-08-22T13:54:44.547Z,29.1
2022-08-22T13:55:49.235Z,29.1
2022-08-22T13:57:02.038Z,29.16
2022-08-22T13:58:13.671Z,29.15
2022-08-22T13:59:34.251Z,29.12
2022-08-22T14:00:31.722Z,29.19
2022-08-22T14:01:34.741Z,29.17
2022-08-22T14:02:47.577Z,29.15
2022-08-22T14:03:59.556Z,29.13
2022-08-22T14:05:12.031Z,29.12
2022-08-22T14:06:32.497Z,29.1
2022-08-22T14:07:30.561Z,29.1
2022-08-22T14:08:32.316Z,29.09
2022-08-22T14:09:45.352Z,29.06
2022-08-22T14:10:52.253Z,29.05
2022-08-22T14:12:00.557Z,29.03
2022-08-22T14:13:12.219Z,29.02
2022-08-22T14:14:26.563Z,29.0
2022-08-22T14:15:45.509Z,28.98
2022-08-22T14:16:39.021Z,28.99
2022-08-22T14:17:50.655Z,28.98
2022-08-22T14:19:05.903Z,28.93
2022-08-22T14:20:08.331Z,28.95
2022-08-22T14:21:23.541Z,28.95
2022-08-22T14:22:35.701Z,28.93
2022-08-22T14:25:05.026Z,28.92
2022-08-22T14:25:59.491Z,28.92
2022-08-22T14:27:11.978Z,28.91
2022-08-22T14:28:16.354Z,28.89
2022-08-22T14:29:29.026Z,28.86
2022-08-22T14:30:43.684Z,28.86
2022-08-22T14:31:46.496Z,28.83
2022-08-22T14:32:58.154Z,28.85
2022-08-22T14:34:11.013Z,28.85
2022-08-22T14:35:34.204Z,28.79
2022-08-22T14:36:30.527Z,28.76
2022-08-22T14:37:42.183Z,28.72
2022-08-22T14:38:46.385Z,28.71
2022-08-22T14:39:58.257Z,28.72
2022-08-22T14:41:11.013Z,28.68
2022-08-22T14:42:12.818Z,28.68
2022-08-22T14:43:26.119Z,28.71
2022-08-22T14:44:37.873Z,28.69
2022-08-22T14:45:50.525Z,28.68
2022-08-22T14:46:52.443Z,28.69
2022-08-22T14:48:29.595Z,28.69
2022-08-22T14:49:14.144Z,28.68
2022-08-22T14:50:27.992Z,28.69
2022-08-22T14:51:30.482Z,28.69
2022-08-22T14:52:42.223Z,28.66
2022-08-22T14:53:54.546Z,28.71
2022-08-22T14:55:08.725Z,28.69
2022-08-22T14:56:11.516Z,28.71
2022-08-22T14:57:23.108Z,28.69
2022-08-22T14:58:35.510Z,28.68
2022-08-22T14:59:37.992Z,28.69
2022-08-22T15:00:50.519Z,28.66
2022-08-22T15:02:02.477Z,28.69
2022-08-22T15:03:15.013Z,28.66
2022-08-22T15:04:19.487Z,28.65
2022-08-22T15:05:37.997Z,28.64
2022-08-22T15:06:37.363Z,28.65
2022-08-22T15:07:50.010Z,28.64